createdAt,value
2023-04-15T00:04:40.434Z,75.68
2023-04-15T00:09:42.602Z,75.71
2023-04-15T00:14:44.576Z,75.82
2023-04-15T00:19:46.321Z,75.77
2023-04-15T00:24:48.549Z,75.71
2023-04-15T00:29:50.721Z,75.65
2023-04-15T00:34:52.402Z,75.65
2023-04-15T00:39:54.021Z,75.61
2023-04-15T00:44:56.867Z,75.66
2023-04-15T00:49:58.842Z,75.78
2023-04-15T00:55:00.823Z,75.70
2023-04-15T01:00:05.367Z,75.80
2023-04-15T01:05:08.163Z,75.91
2023-04-15T01:10:10.462Z,75.94
2023-04-15T01:15:12.630Z,75.95
2023-04-15T01:20:15.844Z,76.09
2023-04-15T01:25:19.564Z,76.10
2023-04-15T01:30:21.435Z,76.22
2023-04-15T01:35:23.628Z,76.30
2023-04-15T01:40:25.399Z,76.27
2023-04-15T01:45:27.682Z,76.31
2023-04-15T01:50:29.457Z,76.40
2023-04-15T01:55:31.552Z,76.49
2023-04-15T02:00:33.411Z,76.58
2023-04-15T02:05:36.220Z,76.51
2023-04-15T02:10:38.507Z,76.61
2023-04-15T02:15:40.792Z,76.80
2023-04-15T02:20:46.773Z,76.77
2023-04-15T02:25:53.599Z,76.98
2023-04-15T02:30:57.285Z,77.09
2023-04-15T02:35:59.052Z,77.12
2023-04-15T02:41:01.229Z,77.20
2023-04-15T02:46:03.701Z,77.26
2023-04-15T02:51:16.699Z,77.25
2023-04-15T02:56:19.386Z,77.19
2023-04-15T03:01:21.665Z,77.10
2023-04-15T03:06:24.336Z,77.02
2023-04-15T03:11:29.079Z,77.04
2023-04-15T03:16:31.156Z,76.97
2023-04-15T03:21:32.933Z,76.76
2023-04-15T03:26:35.428Z,76.84
2023-04-15T03:31:37.236Z,76.81
2023-04-15T03:36:39.082Z,76.64
2023-04-15T03:41:40.853Z,76.60
2023-04-15T03:46:42.787Z,76.27
2023-04-15T03:51:45.651Z,76.16
2023-04-15T03:56:47.511Z,76.12
2023-04-15T04:01:49.345Z,76.10
2023-04-15T04:06:51.167Z,76.12
2023-04-15T04:11:52.938Z,76.17
2023-04-15T04:16:55.675Z,76.02
2023-04-15T04:21:57.716Z,76.16
2023-04-15T04:27:00.510Z,76.05
2023-04-15T04:32:02.433Z,75.91
2023-04-15T04:37:04.361Z,75.69
2023-04-15T04:42:06.033Z,75.55
2023-04-15T04:47:08.013Z,75.06
2023-04-15T04:52:10.301Z,74.68
2023-04-15T04:57:13.200Z,74.62
2023-04-15T05:02:15.158Z,74.64
2023-04-15T05:07:17.056Z,74.76
2023-04-15T05:12:19.040Z,74.86
2023-04-15T05:17:21.057Z,74.93
2023-04-15T05:22:22.892Z,74.54
2023-04-15T05:27:25.183Z,74.51
2023-04-15T05:32:27.085Z,74.80
2023-04-15T05:37:28.831Z,74.82
2023-04-15T05:42:31.014Z,74.86
2023-04-15T05:47:32.939Z,74.97
2023-04-15T05:52:35.078Z,74.89
2023-04-15T05:57:37.364Z,74.96
2023-04-15T06:02:39.295Z,74.83
2023-04-15T06:07:43.371Z,75.06
2023-04-15T06:12:45.557Z,75.23
2023-04-15T06:17:47.546Z,74.82
2023-04-15T06:22:49.822Z,74.54
2023-04-15T06:27:52.520Z,74.35
2023-04-15T06:32:55.443Z,73.78
2023-04-15T06:37:57.228Z,73.24
2023-04-15T06:42:59.069Z,73.02
2023-04-15T06:48:00.862Z,72.73
2023-04-15T06:53:03.080Z,72.71
2023-04-15T06:58:05.106Z,72.66
2023-04-15T07:03:09.785Z,72.49
2023-04-15T07:08:11.832Z,72.16
2023-04-15T07:13:13.706Z,71.82
2023-04-15T07:18:15.586Z,71.75
2023-04-15T07:23:17.973Z,71.50
2023-04-15T07:28:20.155Z,71.77
2023-04-15T07:33:22.039Z,71.94
2023-04-15T07:38:24.327Z,72.24
2023-04-15T07:43:26.718Z,72.23
2023-04-15T07:48:28.603Z,72.21
2023-04-15T07:53:30.977Z,72.10
2023-04-15T07:58:32.864Z,72.43
2023-04-15T08:03:35.098Z,72.40
2023-04-15T08:08:37.121Z,72.78
2023-04-15T08:13:38.892Z,72.85
2023-04-15T08:18:40.873Z,72.39
2023-04-15T08:23:43.569Z,72.14
2023-04-15T08:28:46.995Z,72.04
2023-04-15T08:33:48.752Z,72.42
2023-04-15T08:38:50.833Z,71.98
2023-04-15T08:43:57.632Z,71.73
2023-04-15T08:49:03.637Z,71.10
2023-04-15T08:54:06.828Z,70.86
2023-04-15T08:59:11.044Z,70.92
2023-04-15T09:04:14.180Z,71.37
2023-04-15T09:09:16.661Z,71.48
2023-04-15T09:14:18.436Z,71.50
2023-04-15T09:19:22.917Z,71.60
2023-04-15T09:24:34.052Z,71.80
2023-04-15T09:29:37.337Z,72.03
2023-04-15T09:34:39.561Z,72.03
2023-04-15T09:39:50.238Z,72.07
2023-04-15T09:44:52.674Z,72.51
2023-04-15T09:50:00.307Z,72.66
2023-04-15T09:55:03.738Z,72.79
2023-04-15T10:00:11.766Z,73.05
2023-04-15T10:05:15.176Z,73.29
2023-04-15T10:10:17.873Z,73.44
2023-04-15T10:15:22.121Z,73.33
2023-04-15T10:20:24.763Z,73.44
2023-04-15T10:25:29.381Z,73.56
2023-04-15T10:30:32.556Z,74.02
2023-04-15T10:35:35.710Z,74.09
2023-04-15T10:40:39.017Z,74.24
2023-04-15T10:45:44.599Z,74.05
2023-04-15T10:50:57.167Z,74.02
2023-04-15T10:55:59.543Z,74.08
2023-04-15T11:01:02.437Z,74.31
2023-04-15T11:06:06.070Z,74.98
2023-04-15T11:11:09.166Z,75.33
2023-04-15T11:16:12.334Z,75.39
2023-04-15T11:21:14.248Z,75.37
2023-04-15T11:26:16.362Z,75.67
2023-04-15T11:31:19.921Z,75.95
2023-04-15T11:36:29.721Z,76.10
2023-04-15T11:41:31.695Z,76.02
2023-04-15T11:46:33.467Z,76.05
2023-04-15T11:51:35.552Z,75.79
2023-04-15T11:56:37.845Z,75.83
2023-04-15T12:01:41.966Z,76.06
2023-04-15T12:06:45.377Z,76.56
2023-04-15T12:11:53.312Z,77.38
2023-04-15T12:16:59.615Z,78.28
2023-04-15T12:22:08.616Z,78.73
2023-04-15T12:27:15.810Z,79.35
2023-04-15T12:32:20.599Z,80.51
2023-04-15T12:37:22.661Z,80.41
2023-04-15T12:42:24.837Z,81.02
2023-04-15T12:47:30.072Z,80.73
2023-04-15T12:52:39.349Z,81.13
2023-04-15T12:57:41.327Z,80.67
2023-04-15T13:02:44.617Z,80.93
2023-04-15T13:07:46.709Z,81.32
2023-04-15T13:12:52.614Z,81.60
2023-04-15T13:17:54.394Z,81.64
2023-04-15T13:22:56.646Z,81.54
2023-04-15T13:28:01.152Z,81.25
2023-04-15T13:33:04.438Z,80.84
2023-04-15T13:38:06.788Z,80.49
2023-04-15T13:43:09.022Z,79.63
2023-04-15T13:48:11.057Z,78.70
2023-04-15T13:53:13.741Z,78.27
2023-04-15T13:58:16.135Z,78.14
2023-04-15T14:03:18.112Z,79.12
2023-04-15T14:08:20.190Z,80.60
2023-04-15T14:13:34.871Z,81.02
2023-04-15T14:18:40.334Z,81.40
2023-04-15T14:23:42.818Z,81.62
2023-04-15T14:28:44.992Z,82.29
2023-04-15T14:33:47.389Z,82.87
2023-04-15T14:38:49.266Z,82.91
2023-04-15T14:43:51.161Z,82.65
2023-04-15T14:48:53.329Z,82.88
2023-04-15T14:53:55.409Z,83.10
2023-04-15T14:58:57.291Z,83.52
2023-04-15T15:03:59.402Z,83.43
2023-04-15T15:09:01.850Z,83.32
2023-04-15T15:14:03.936Z,83.35
2023-04-15T15:19:06.183Z,83.23
2023-04-15T15:24:08.925Z,83.81
2023-04-15T15:29:11.006Z,83.97
2023-04-15T15:34:12.880Z,83.77
2023-04-15T15:39:16.515Z,84.24
2023-04-15T15:44:18.373Z,84.40
2023-04-15T15:49:20.464Z,84.89
2023-04-15T15:54:22.754Z,85.39
2023-04-15T15:59:25.336Z,85.64
2023-04-15T16:04:27.291Z,85.95
2023-04-15T16:09:29.502Z,85.80
2023-04-15T16:14:31.580Z,86.06
2023-04-15T16:19:33.456Z,86.23
2023-04-15T16:24:35.492Z,86.19
2023-04-15T16:29:37.823Z,86.45
2023-04-15T16:34:41.031Z,86.42
2023-04-15T16:39:42.920Z,86.46
2023-04-15T16:44:44.683Z,86.26
2023-04-15T16:49:46.458Z,86.36
2023-04-15T16:54:48.333Z,86.25
2023-04-15T16:59:50.619Z,86.37
2023-04-15T17:04:52.503Z,86.51
2023-04-15T17:09:54.885Z,86.42
2023-04-15T17:14:57.389Z,87.09
2023-04-15T17:19:59.660Z,87.48
2023-04-15T17:25:03.540Z,87.69
2023-04-15T17:30:09.033Z,88.19
2023-04-15T17:35:11.438Z,88.55
2023-04-15T17:40:14.437Z,88.89
2023-04-15T17:45:16.729Z,89.26
2023-04-15T17:50:19.227Z,89.49
2023-04-15T17:55:24.177Z,89.39
2023-04-15T18:00:26.459Z,89.02
2023-04-15T18:05:29.468Z,89.23
2023-04-15T18:10:33.424Z,89.89
2023-04-15T18:15:35.562Z,89.91
2023-04-15T18:20:37.446Z,89.64
2023-04-15T18:25:43.211Z,89.62
2023-04-15T18:30:47.137Z,89.56
2023-04-15T18:35:50.654Z,89.25
2023-04-15T18:40:53.037Z,89.07
2023-04-15T18:45:55.702Z,89.18
2023-04-15T18:50:58.438Z,88.76
2023-04-15T18:56:03.312Z,88.47
2023-04-15T19:01:06.294Z,87.96
2023-04-15T19:06:08.978Z,88.36
2023-04-15T19:11:11.274Z,89.07
2023-04-15T19:16:13.935Z,89.52
2023-04-15T19:21:16.866Z,89.87
2023-04-15T19:26:19.353Z,90.14
2023-04-15T19:31:21.147Z,90.30
2023-04-15T19:36:23.164Z,90.51
2023-04-15T19:41:25.399Z,90.70
2023-04-15T19:46:27.562Z,90.96
2023-04-15T19:51:29.983Z,91.12
2023-04-15T19:56:34.269Z,91.20
2023-04-15T20:01:36.709Z,91.27
2023-04-15T20:06:38.870Z,91.31
2023-04-15T20:12:45.885Z,91.50
2023-04-15T20:17:05.559Z,91.64
2023-04-15T20:22:09.181Z,91.83
2023-04-15T20:27:11.367Z,91.93
2023-04-15T20:32:13.454Z,92.15
2023-04-15T20:37:15.631Z,92.27
2023-04-15T20:42:19.039Z,92.35
2023-04-15T20:47:21.334Z,92.33
2023-04-15T20:52:24.036Z,92.24
2023-04-15T20:57:26.211Z,92.09
2023-04-15T21:02:28.564Z,91.85
2023-04-15T21:07:31.299Z,91.60
2023-04-15T21:12:33.892Z,91.52
2023-04-15T21:17:36.028Z,91.33
2023-04-15T21:22:37.857Z,91.30
2023-04-15T21:27:40.033Z,91.21
2023-04-15T21:32:41.850Z,91.24
2023-04-15T21:37:43.990Z,91.31
2023-04-15T21:42:47.200Z,91.32
2023-04-15T21:48:04.455Z,91.22
2023-04-15T21:53:10.722Z,91.16
2023-04-15T21:58:12.487Z,91.06
2023-04-15T22:03:16.243Z,91.07
2023-04-15T22:13:46.288Z,91.21
2023-04-15T22:18:48.052Z,91.30
2023-04-15T22:23:53.314Z,91.34
2023-04-15T22:29:15.362Z,91.41
2023-04-15T22:34:23.397Z,91.44
2023-04-15T22:39:25.259Z,91.53
2023-04-15T22:44:27.137Z,91.57
2023-04-15T22:49:29.009Z,91.61
2023-04-15T22:54:30.777Z,91.62
2023-04-15T22:59:32.617Z,91.65
2023-04-15T23:04:34.934Z,91.67
2023-04-15T23:09:38.980Z,91.79
2023-04-15T23:14:40.747Z,91.89
2023-04-15T23:19:42.577Z,91.83
2023-04-15T23:24:44.400Z,91.92
2023-04-15T23:29:46.271Z,91.89
2023-04-15T23:34:48.049Z,91.95
2023-04-15T23:39:49.824Z,91.98
2023-04-15T23:44:51.720Z,92.04
2023-04-15T23:49:53.316Z,91.99
2023-04-15T23:54:55.274Z,91.93
2023-04-15T23:59:56.923Z,91.70
